sensor_id;sensor_type;location;lat;lon;timestamp;temperature;humidity
72468;SHT30;60626;43.582;1.470;2022-07-24T00:01:00;27.03;49.02
72468;SHT30;60626;43.582;1.470;2022-07-24T00:03:27;27.00;49.06
72468;SHT30;60626;43.582;1.470;2022-07-24T00:05:55;26.98;49.16
72468;SHT30;60626;43.582;1.470;2022-07-24T00:08:22;26.96;49.28
72468;SHT30;60626;43.582;1.470;2022-07-24T00:10:49;26.98;49.29
72468;SHT30;60626;43.582;1.470;2022-07-24T00:13:15;26.95;49.54
72468;SHT30;60626;43.582;1.470;2022-07-24T00:15:42;26.94;49.51
72468;SHT30;60626;43.582;1.470;2022-07-24T00:18:09;26.92;49.56
72468;SHT30;60626;43.582;1.470;2022-07-24T00:20:36;26.92;49.58
72468;SHT30;60626;43.582;1.470;2022-07-24T00:23:02;26.89;49.75
72468;SHT30;60626;43.582;1.470;2022-07-24T00:25:29;26.87;49.78
72468;SHT30;60626;43.582;1.470;2022-07-24T00:27:56;26.84;49.85
72468;SHT30;60626;43.582;1.470;2022-07-24T00:30:23;26.85;49.86
72468;SHT30;60626;43.582;1.470;2022-07-24T00:32:50;26.79;50.00
72468;SHT30;60626;43.582;1.470;2022-07-24T00:35:17;26.81;49.88
72468;SHT30;60626;43.582;1.470;2022-07-24T00:37:44;26.79;50.16
72468;SHT30;60626;43.582;1.470;2022-07-24T00:40:13;26.77;50.09
72468;SHT30;60626;43.582;1.470;2022-07-24T00:42:42;26.75;50.25
72468;SHT30;60626;43.582;1.470;2022-07-24T00:45:09;26.77;50.19
72468;SHT30;60626;43.582;1.470;2022-07-24T00:47:52;26.71;50.40
72468;SHT30;60626;43.582;1.470;2022-07-24T00:50:23;26.69;50.48
72468;SHT30;60626;43.582;1.470;2022-07-24T00:52:51;26.69;50.57
72468;SHT30;60626;43.582;1.470;2022-07-24T00:55:18;26.65;50.57
72468;SHT30;60626;43.582;1.470;2022-07-24T00:57:46;26.65;50.72
72468;SHT30;60626;43.582;1.470;2022-07-24T01:00:17;26.64;50.48
72468;SHT30;60626;43.582;1.470;2022-07-24T01:02:44;26.60;50.97
72468;SHT30;60626;43.582;1.470;2022-07-24T01:05:11;26.57;51.02
72468;SHT30;60626;43.582;1.470;2022-07-24T01:07:38;26.57;51.07
72468;SHT30;60626;43.582;1.470;2022-07-24T01:10:06;26.52;51.13
72468;SHT30;60626;43.582;1.470;2022-07-24T01:12:35;26.52;51.02
72468;SHT30;60626;43.582;1.470;2022-07-24T01:15:04;26.51;51.32
72468;SHT30;60626;43.582;1.470;2022-07-24T01:17:34;26.51;51.14
72468;SHT30;60626;43.582;1.470;2022-07-24T01:20:03;26.48;51.48
72468;SHT30;60626;43.582;1.470;2022-07-24T01:22:30;26.45;51.46
72468;SHT30;60626;43.582;1.470;2022-07-24T01:24:56;26.47;51.57
72468;SHT30;60626;43.582;1.470;2022-07-24T01:27:24;26.43;51.57
72468;SHT30;60626;43.582;1.470;2022-07-24T01:29:51;26.40;51.76
72468;SHT30;60626;43.582;1.470;2022-07-24T01:32:18;26.41;51.68
72468;SHT30;60626;43.582;1.470;2022-07-24T01:34:45;26.39;51.81
72468;SHT30;60626;43.582;1.470;2022-07-24T01:37:12;26.36;51.99
72468;SHT30;60626;43.582;1.470;2022-07-24T01:39:38;26.34;51.91
72468;SHT30;60626;43.582;1.470;2022-07-24T01:42:05;26.31;52.10
72468;SHT30;60626;43.582;1.470;2022-07-24T01:44:32;26.31;52.22
72468;SHT30;60626;43.582;1.470;2022-07-24T01:46:59;26.31;52.20
72468;SHT30;60626;43.582;1.470;2022-07-24T01:49:25;26.30;52.39
72468;SHT30;60626;43.582;1.470;2022-07-24T01:51:52;26.26;52.36
72468;SHT30;60626;43.582;1.470;2022-07-24T01:54:19;26.26;52.35
72468;SHT30;60626;43.582;1.470;2022-07-24T01:56:46;26.23;52.54
72468;SHT30;60626;43.582;1.470;2022-07-24T01:59:13;26.23;52.70
72468;SHT30;60626;43.582;1.470;2022-07-24T02:01:40;26.20;52.71
72468;SHT30;60626;43.582;1.470;2022-07-24T02:04:06;26.22;52.72
72468;SHT30;60626;43.582;1.470;2022-07-24T02:06:33;26.20;52.70
72468;SHT30;60626;43.582;1.470;2022-07-24T02:09:00;26.19;52.66
72468;SHT30;60626;43.582;1.470;2022-07-24T02:11:28;26.17;52.71
72468;SHT30;60626;43.582;1.470;2022-07-24T02:13:54;26.16;52.88
72468;SHT30;60626;43.582;1.470;2022-07-24T02:16:23;26.13;52.92
72468;SHT30;60626;43.582;1.470;2022-07-24T02:18:50;26.12;52.92
72468;SHT30;60626;43.582;1.470;2022-07-24T02:21:17;26.07;53.09
72468;SHT30;60626;43.582;1.470;2022-07-24T02:23:43;26.06;53.12
72468;SHT30;60626;43.582;1.470;2022-07-24T02:26:10;26.05;53.12
72468;SHT30;60626;43.582;1.470;2022-07-24T02:28:37;26.05;53.22
72468;SHT30;60626;43.582;1.470;2022-07-24T02:31:03;26.02;53.33
72468;SHT30;60626;43.582;1.470;2022-07-24T02:33:30;26.02;53.42
72468;SHT30;60626;43.582;1.470;2022-07-24T02:35:57;25.99;53.48
72468;SHT30;60626;43.582;1.470;2022-07-24T02:38:24;25.99;53.59
72468;SHT30;60626;43.582;1.470;2022-07-24T02:40:51;25.97;53.61
72468;SHT30;60626;43.582;1.470;2022-07-24T02:43:17;25.97;53.64
72468;SHT30;60626;43.582;1.470;2022-07-24T02:45:44;25.95;53.75
72468;SHT30;60626;43.582;1.470;2022-07-24T02:48:17;25.90;53.76
72468;SHT30;60626;43.582;1.470;2022-07-24T02:50:43;25.90;53.82
72468;SHT30;60626;43.582;1.470;2022-07-24T02:53:10;25.86;53.95
72468;SHT30;60626;43.582;1.470;2022-07-24T02:55:37;25.85;54.00
72468;SHT30;60626;43.582;1.470;2022-07-24T02:58:03;25.84;54.04
72468;SHT30;60626;43.582;1.470;2022-07-24T03:00:30;25.81;53.86
72468;SHT30;60626;43.582;1.470;2022-07-24T03:02:57;25.81;54.31
72468;SHT30;60626;43.582;1.470;2022-07-24T03:05:24;25.78;54.14
72468;SHT30;60626;43.582;1.470;2022-07-24T03:07:50;25.74;54.29
72468;SHT30;60626;43.582;1.470;2022-07-24T03:10:17;25.71;54.38
72468;SHT30;60626;43.582;1.470;2022-07-24T03:12:44;25.68;54.50
72468;SHT30;60626;43.582;1.470;2022-07-24T03:15:12;25.69;54.55
72468;SHT30;60626;43.582;1.470;2022-07-24T03:17:46;25.67;54.66
72468;SHT30;60626;43.582;1.470;2022-07-24T03:20:13;25.65;54.71
72468;SHT30;60626;43.582;1.470;2022-07-24T03:22:40;25.65;54.69
72468;SHT30;60626;43.582;1.470;2022-07-24T03:25:07;25.65;54.74
72468;SHT30;60626;43.582;1.470;2022-07-24T03:27:34;25.64;54.73
72468;SHT30;60626;43.582;1.470;2022-07-24T03:30:00;25.61;54.88
72468;SHT30;60626;43.582;1.470;2022-07-24T03:32:27;25.61;54.78
72468;SHT30;60626;43.582;1.470;2022-07-24T03:34:54;25.58;54.92
72468;SHT30;60626;43.582;1.470;2022-07-24T03:37:21;25.54;54.95
72468;SHT30;60626;43.582;1.470;2022-07-24T03:39:47;25.52;55.08
72468;SHT30;60626;43.582;1.470;2022-07-24T03:42:14;25.52;55.05
72468;SHT30;60626;43.582;1.470;2022-07-24T03:44:41;25.52;54.96
72468;SHT30;60626;43.582;1.470;2022-07-24T03:47:07;25.55;55.23
72468;SHT30;60626;43.582;1.470;2022-07-24T03:49:34;25.55;55.28
72468;SHT30;60626;43.582;1.470;2022-07-24T03:52:02;25.57;55.27
72468;SHT30;60626;43.582;1.470;2022-07-24T03:54:29;25.54;55.31
72468;SHT30;60626;43.582;1.470;2022-07-24T03:56:55;25.57;55.31
72468;SHT30;60626;43.582;1.470;2022-07-24T03:59:22;25.51;55.38
72468;SHT30;60626;43.582;1.470;2022-07-24T04:01:49;25.51;55.34
72468;SHT30;60626;43.582;1.470;2022-07-24T04:04:16;25.50;55.34
72468;SHT30;60626;43.582;1.470;2022-07-24T04:06:43;25.45;55.61
72468;SHT30;60626;43.582;1.470;2022-07-24T04:09:09;25.42;55.54
72468;SHT30;60626;43.582;1.470;2022-07-24T04:11:36;25.42;55.50
72468;SHT30;60626;43.582;1.470;2022-07-24T04:14:03;25.40;55.47
72468;SHT30;60626;43.582;1.470;2022-07-24T04:16:30;25.37;55.71
72468;SHT30;60626;43.582;1.470;2022-07-24T04:18:57;25.37;55.76
72468;SHT30;60626;43.582;1.470;2022-07-24T04:21:26;25.35;55.88
72468;SHT30;60626;43.582;1.470;2022-07-24T04:23:53;25.38;55.90
72468;SHT30;60626;43.582;1.470;2022-07-24T04:26:19;25.34;55.84
72468;SHT30;60626;43.582;1.470;2022-07-24T04:28:46;25.34;55.72
72468;SHT30;60626;43.582;1.470;2022-07-24T04:31:13;25.31;55.98
72468;SHT30;60626;43.582;1.470;2022-07-24T04:33:40;25.27;55.94
72468;SHT30;60626;43.582;1.470;2022-07-24T04:36:06;25.26;56.06
72468;SHT30;60626;43.582;1.470;2022-07-24T04:38:36;25.26;56.19
72468;SHT30;60626;43.582;1.470;2022-07-24T04:41:03;25.21;56.26
72468;SHT30;60626;43.582;1.470;2022-07-24T04:43:31;25.26;56.25
72468;SHT30;60626;43.582;1.470;2022-07-24T04:45:58;25.21;56.34
72468;SHT30;60626;43.582;1.470;2022-07-24T04:48:25;25.17;56.31
72468;SHT30;60626;43.582;1.470;2022-07-24T04:50:52;25.16;56.19
72468;SHT30;60626;43.582;1.470;2022-07-24T04:53:19;25.14;56.40
72468;SHT30;60626;43.582;1.470;2022-07-24T04:55:46;25.13;56.33
72468;SHT30;60626;43.582;1.470;2022-07-24T04:58:12;25.12;56.45
72468;SHT30;60626;43.582;1.470;2022-07-24T05:00:39;25.14;56.49
72468;SHT30;60626;43.582;1.470;2022-07-24T05:03:06;25.20;56.69
72468;SHT30;60626;43.582;1.470;2022-07-24T05:05:32;25.21;56.66
72468;SHT30;60626;43.582;1.470;2022-07-24T05:07:59;25.27;56.70
72468;SHT30;60626;43.582;1.470;2022-07-24T05:10:26;25.31;56.49
72468;SHT30;60626;43.582;1.470;2022-07-24T05:12:53;25.41;56.49
72468;SHT30;60626;43.582;1.470;2022-07-24T05:15:19;25.50;56.35
72468;SHT30;60626;43.582;1.470;2022-07-24T05:17:46;25.55;56.46
72468;SHT30;60626;43.582;1.470;2022-07-24T05:20:14;25.62;55.99
72468;SHT30;60626;43.582;1.470;2022-07-24T05:22:41;25.68;56.23
72468;SHT30;60626;43.582;1.470;2022-07-24T05:25:08;25.75;56.22
72468;SHT30;60626;43.582;1.470;2022-07-24T05:27:35;25.82;56.08
72468;SHT30;60626;43.582;1.470;2022-07-24T05:30:04;25.88;55.51
72468;SHT30;60626;43.582;1.470;2022-07-24T05:32:31;25.96;54.39
72468;SHT30;60626;43.582;1.470;2022-07-24T05:34:58;25.93;54.04
72468;SHT30;60626;43.582;1.470;2022-07-24T05:37:25;25.95;53.82
72468;SHT30;60626;43.582;1.470;2022-07-24T05:39:51;25.96;53.82
72468;SHT30;60626;43.582;1.470;2022-07-24T05:42:23;25.99;53.68
72468;SHT30;60626;43.582;1.470;2022-07-24T05:44:50;26.03;53.42
72468;SHT30;60626;43.582;1.470;2022-07-24T05:47:17;26.12;53.13
72468;SHT30;60626;43.582;1.470;2022-07-24T05:49:44;26.16;52.96
72468;SHT30;60626;43.582;1.470;2022-07-24T05:52:10;26.19;52.95
72468;SHT30;60626;43.582;1.470;2022-07-24T05:54:37;26.20;52.85
72468;SHT30;60626;43.582;1.470;2022-07-24T05:57:04;26.19;52.96
72468;SHT30;60626;43.582;1.470;2022-07-24T05:59:31;26.14;53.03
72468;SHT30;60626;43.582;1.470;2022-07-24T06:01:57;26.14;52.84
72468;SHT30;60626;43.582;1.470;2022-07-24T06:04:26;26.10;52.72
72468;SHT30;60626;43.582;1.470;2022-07-24T06:06:53;26.07;52.69
72468;SHT30;60626;43.582;1.470;2022-07-24T06:09:20;26.02;53.19
72468;SHT30;60626;43.582;1.470;2022-07-24T06:11:46;25.99;53.42
72468;SHT30;60626;43.582;1.470;2022-07-24T06:14:13;25.99;53.44
72468;SHT30;60626;43.582;1.470;2022-07-24T06:16:40;25.99;53.46
72468;SHT30;60626;43.582;1.470;2022-07-24T06:19:06;25.97;53.40
72468;SHT30;60626;43.582;1.470;2022-07-24T06:21:34;26.02;53.58
72468;SHT30;60626;43.582;1.470;2022-07-24T06:24:01;26.05;53.59
72468;SHT30;60626;43.582;1.470;2022-07-24T06:26:27;26.10;53.45
72468;SHT30;60626;43.582;1.470;2022-07-24T06:29:04;26.14;53.57
72468;SHT30;60626;43.582;1.470;2022-07-24T06:31:44;26.23;53.52
72468;SHT30;60626;43.582;1.470;2022-07-24T06:34:11;26.36;53.46
72468;SHT30;60626;43.582;1.470;2022-07-24T06:36:38;26.47;53.13
72468;SHT30;60626;43.582;1.470;2022-07-24T06:39:04;26.55;53.09
72468;SHT30;60626;43.582;1.470;2022-07-24T06:41:32;26.71;52.69
72468;SHT30;60626;43.582;1.470;2022-07-24T06:43:58;26.81;52.45
72468;SHT30;60626;43.582;1.470;2022-07-24T06:46:26;26.89;52.56
72468;SHT30;60626;43.582;1.470;2022-07-24T06:48:53;26.99;52.21
72468;SHT30;60626;43.582;1.470;2022-07-24T06:51:20;27.09;52.02
72468;SHT30;60626;43.582;1.470;2022-07-24T06:53:46;27.17;51.68
72468;SHT30;60626;43.582;1.470;2022-07-24T06:56:13;27.29;51.72
72468;SHT30;60626;43.582;1.470;2022-07-24T06:58:40;27.39;51.48
72468;SHT30;60626;43.582;1.470;2022-07-24T07:01:07;27.47;51.40
72468;SHT30;60626;43.582;1.470;2022-07-24T07:03:33;27.61;51.09
72468;SHT30;60626;43.582;1.470;2022-07-24T07:06:00;27.72;50.81
72468;SHT30;60626;43.582;1.470;2022-07-24T07:08:27;27.82;50.49
72468;SHT30;60626;43.582;1.470;2022-07-24T07:10:53;27.97;50.41
72468;SHT30;60626;43.582;1.470;2022-07-24T07:13:20;28.12;49.93
72468;SHT30;60626;43.582;1.470;2022-07-24T07:15:47;28.27;49.69
72468;SHT30;60626;43.582;1.470;2022-07-24T07:18:14;28.46;49.21
72468;SHT30;60626;43.582;1.470;2022-07-24T07:20:41;28.61;49.08
72468;SHT30;60626;43.582;1.470;2022-07-24T07:23:08;28.80;48.71
72468;SHT30;60626;43.582;1.470;2022-07-24T07:25:35;28.95;48.49
72468;SHT30;60626;43.582;1.470;2022-07-24T07:28:01;29.04;48.18
72468;SHT30;60626;43.582;1.470;2022-07-24T07:30:28;29.15;48.04
72468;SHT30;60626;43.582;1.470;2022-07-24T07:32:55;29.28;47.67
72468;SHT30;60626;43.582;1.470;2022-07-24T07:35:22;29.39;47.91
72468;SHT30;60626;43.582;1.470;2022-07-24T07:37:53;29.46;47.84
72468;SHT30;60626;43.582;1.470;2022-07-24T07:40:20;29.64;47.33
72468;SHT30;60626;43.582;1.470;2022-07-24T07:42:46;29.74;46.94
72468;SHT30;60626;43.582;1.470;2022-07-24T07:45:13;29.83;46.78
72468;SHT30;60626;43.582;1.470;2022-07-24T07:47:40;29.96;46.51
72468;SHT30;60626;43.582;1.470;2022-07-24T07:50:07;30.14;46.44
72468;SHT30;60626;43.582;1.470;2022-07-24T07:52:34;30.21;46.02
72468;SHT30;60626;43.582;1.470;2022-07-24T07:55:02;30.29;45.68
72468;SHT30;60626;43.582;1.470;2022-07-24T07:57:30;30.39;45.79
72468;SHT30;60626;43.582;1.470;2022-07-24T08:00:17;30.52;44.95
72468;SHT30;60626;43.582;1.470;2022-07-24T08:02:45;30.59;44.83
72468;SHT30;60626;43.582;1.470;2022-07-24T08:05:12;30.63;44.85
72468;SHT30;60626;43.582;1.470;2022-07-24T08:07:38;30.60;43.74
72468;SHT30;60626;43.582;1.470;2022-07-24T08:10:06;30.59;44.07
72468;SHT30;60626;43.582;1.470;2022-07-24T08:12:37;30.69;44.11
72468;SHT30;60626;43.582;1.470;2022-07-24T08:15:05;30.83;43.43
72468;SHT30;60626;43.582;1.470;2022-07-24T08:17:32;30.88;42.99
72468;SHT30;60626;43.582;1.470;2022-07-24T08:19:59;30.93;43.10
72468;SHT30;60626;43.582;1.470;2022-07-24T08:22:26;31.04;43.34
72468;SHT30;60626;43.582;1.470;2022-07-24T08:24:52;31.13;43.34
72468;SHT30;60626;43.582;1.470;2022-07-24T08:27:19;31.22;43.55
72468;SHT30;60626;43.582;1.470;2022-07-24T08:29:46;31.21;42.61
72468;SHT30;60626;43.582;1.470;2022-07-24T08:32:12;31.30;42.53
72468;SHT30;60626;43.582;1.470;2022-07-24T08:34:39;31.30;42.12
72468;SHT30;60626;43.582;1.470;2022-07-24T08:37:06;31.34;41.99
72468;SHT30;60626;43.582;1.470;2022-07-24T08:39:32;31.38;41.88
72468;SHT30;60626;43.582;1.470;2022-07-24T08:41:59;31.41;42.16
72468;SHT30;60626;43.582;1.470;2022-07-24T08:44:26;31.48;42.65
72468;SHT30;60626;43.582;1.470;2022-07-24T08:46:54;31.62;42.19
72468;SHT30;60626;43.582;1.470;2022-07-24T08:49:23;31.72;41.44
72468;SHT30;60626;43.582;1.470;2022-07-24T08:51:53;31.79;42.61
72468;SHT30;60626;43.582;1.470;2022-07-24T08:54:19;31.79;41.38
72468;SHT30;60626;43.582;1.470;2022-07-24T08:56:48;31.90;41.70
72468;SHT30;60626;43.582;1.470;2022-07-24T08:59:19;31.94;41.07
72468;SHT30;60626;43.582;1.470;2022-07-24T09:01:52;32.02;41.44
72468;SHT30;60626;43.582;1.470;2022-07-24T09:04:41;32.07;41.35
72468;SHT30;60626;43.582;1.470;2022-07-24T09:07:14;32.13;40.69
72468;SHT30;60626;43.582;1.470;2022-07-24T09:09:42;32.12;40.53
72468;SHT30;60626;43.582;1.470;2022-07-24T09:12:17;32.10;41.78
72468;SHT30;60626;43.582;1.470;2022-07-24T09:14:47;32.07;40.78
72468;SHT30;60626;43.582;1.470;2022-07-24T09:17:16;32.02;40.85
72468;SHT30;60626;43.582;1.470;2022-07-24T09:22:43;32.06;40.68
72468;SHT30;60626;43.582;1.470;2022-07-24T09:28:01;32.16;40.36
72468;SHT30;60626;43.582;1.470;2022-07-24T09:30:33;32.19;39.91
72468;SHT30;60626;43.582;1.470;2022-07-24T09:38:08;32.31;40.13
72468;SHT30;60626;43.582;1.470;2022-07-24T09:40:37;32.31;40.31
72468;SHT30;60626;43.582;1.470;2022-07-24T09:43:27;32.44;40.49
72468;SHT30;60626;43.582;1.470;2022-07-24T09:48:35;32.52;39.53
72468;SHT30;60626;43.582;1.470;2022-07-24T09:51:04;32.55;39.68
72468;SHT30;60626;43.582;1.470;2022-07-24T09:53:36;32.58;40.26
72468;SHT30;60626;43.582;1.470;2022-07-24T09:56:15;32.54;39.60
72468;SHT30;60626;43.582;1.470;2022-07-24T10:01:17;32.68;40.01
72468;SHT30;60626;43.582;1.470;2022-07-24T10:03:46;32.74;39.60
72468;SHT30;60626;43.582;1.470;2022-07-24T10:06:15;32.75;38.24
72468;SHT30;60626;43.582;1.470;2022-07-24T10:08:45;32.76;38.63
72468;SHT30;60626;43.582;1.470;2022-07-24T10:11:13;32.86;38.15
72468;SHT30;60626;43.582;1.470;2022-07-24T10:13:40;32.94;38.08
72468;SHT30;60626;43.582;1.470;2022-07-24T10:16:22;32.95;38.38
72468;SHT30;60626;43.582;1.470;2022-07-24T10:18:59;32.96;37.79
72468;SHT30;60626;43.582;1.470;2022-07-24T10:21:29;33.05;36.82
72468;SHT30;60626;43.582;1.470;2022-07-24T10:26:44;33.03;36.57
72468;SHT30;60626;43.582;1.470;2022-07-24T10:29:13;33.02;36.64
72468;SHT30;60626;43.582;1.470;2022-07-24T10:31:42;33.02;36.37
72468;SHT30;60626;43.582;1.470;2022-07-24T10:34:33;33.05;35.89
72468;SHT30;60626;43.582;1.470;2022-07-24T10:42:17;33.07;34.43
72468;SHT30;60626;43.582;1.470;2022-07-24T10:44:43;33.12;34.91
72468;SHT30;60626;43.582;1.470;2022-07-24T10:47:12;33.16;35.11
72468;SHT30;60626;43.582;1.470;2022-07-24T10:49:49;33.22;35.13
72468;SHT30;60626;43.582;1.470;2022-07-24T10:57:57;33.40;34.71
72468;SHT30;60626;43.582;1.470;2022-07-24T11:00:40;33.43;35.31
72468;SHT30;60626;43.582;1.470;2022-07-24T11:03:17;33.49;34.13
72468;SHT30;60626;43.582;1.470;2022-07-24T11:06:05;33.49;33.96
72468;SHT30;60626;43.582;1.470;2022-07-24T11:08:40;33.47;34.41
72468;SHT30;60626;43.582;1.470;2022-07-24T11:11:10;33.50;34.48
72468;SHT30;60626;43.582;1.470;2022-07-24T11:18:38;33.54;33.72
72468;SHT30;60626;43.582;1.470;2022-07-24T11:21:10;33.55;33.92
72468;SHT30;60626;43.582;1.470;2022-07-24T11:23:37;33.57;33.76
72468;SHT30;60626;43.582;1.470;2022-07-24T11:29:50;33.62;34.47
72468;SHT30;60626;43.582;1.470;2022-07-24T11:32:13;33.68;34.94
72468;SHT30;60626;43.582;1.470;2022-07-24T11:34:49;33.69;34.10
72468;SHT30;60626;43.582;1.470;2022-07-24T11:37:17;33.74;34.18
72468;SHT30;60626;43.582;1.470;2022-07-24T11:39:45;33.77;33.90
72468;SHT30;60626;43.582;1.470;2022-07-24T11:42:14;33.77;34.15
72468;SHT30;60626;43.582;1.470;2022-07-24T11:44:47;33.84;33.67
72468;SHT30;60626;43.582;1.470;2022-07-24T11:47:20;33.87;33.89
72468;SHT30;60626;43.582;1.470;2022-07-24T11:52:31;33.85;33.67
72468;SHT30;60626;43.582;1.470;2022-07-24T11:55:10;33.87;33.86
72468;SHT30;60626;43.582;1.470;2022-07-24T11:57:47;33.85;34.78
72468;SHT30;60626;43.582;1.470;2022-07-24T12:00:34;33.85;34.00
72468;SHT30;60626;43.582;1.470;2022-07-24T12:03:01;33.82;33.61
72468;SHT30;60626;43.582;1.470;2022-07-24T12:05:33;33.78;33.67
72468;SHT30;60626;43.582;1.470;2022-07-24T12:08:03;33.77;34.52
72468;SHT30;60626;43.582;1.470;2022-07-24T12:10:31;33.78;33.34
72468;SHT30;60626;43.582;1.470;2022-07-24T12:12:57;33.78;33.51
72468;SHT30;60626;43.582;1.470;2022-07-24T12:15:25;33.79;34.44
72468;SHT30;60626;43.582;1.470;2022-07-24T12:18:01;33.79;34.26
72468;SHT30;60626;43.582;1.470;2022-07-24T12:20:38;33.79;33.73
72468;SHT30;60626;43.582;1.470;2022-07-24T12:23:07;33.85;34.35
72468;SHT30;60626;43.582;1.470;2022-07-24T12:25:35;33.89;33.64
72468;SHT30;60626;43.582;1.470;2022-07-24T12:28:03;33.87;34.13
72468;SHT30;60626;43.582;1.470;2022-07-24T12:30:33;33.85;33.05
72468;SHT30;60626;43.582;1.470;2022-07-24T12:33:04;33.87;33.55
72468;SHT30;60626;43.582;1.470;2022-07-24T12:35:34;33.88;33.75
72468;SHT30;60626;43.582;1.470;2022-07-24T12:38:02;33.91;33.97
72468;SHT30;60626;43.582;1.470;2022-07-24T12:40:35;33.94;32.94
72468;SHT30;60626;43.582;1.470;2022-07-24T12:43:11;33.94;32.44
72468;SHT30;60626;43.582;1.470;2022-07-24T12:45:39;33.89;33.50
72468;SHT30;60626;43.582;1.470;2022-07-24T12:48:07;33.89;33.41
72468;SHT30;60626;43.582;1.470;2022-07-24T12:50:35;33.92;34.42
72468;SHT30;60626;43.582;1.470;2022-07-24T12:53:22;33.92;32.66
72468;SHT30;60626;43.582;1.470;2022-07-24T12:56:03;33.94;33.97
72468;SHT30;60626;43.582;1.470;2022-07-24T13:01:16;33.96;33.62
72468;SHT30;60626;43.582;1.470;2022-07-24T13:03:55;33.98;33.73
72468;SHT30;60626;43.582;1.470;2022-07-24T13:06:42;34.01;33.56
72468;SHT30;60626;43.582;1.470;2022-07-24T13:09:10;34.05;33.16
72468;SHT30;60626;43.582;1.470;2022-07-24T13:11:39;34.08;33.14
72468;SHT30;60626;43.582;1.470;2022-07-24T13:14:07;34.09;33.21
72468;SHT30;60626;43.582;1.470;2022-07-24T13:16:37;34.06;33.94
72468;SHT30;60626;43.582;1.470;2022-07-24T13:19:06;34.09;34.09
72468;SHT30;60626;43.582;1.470;2022-07-24T13:21:33;34.17;34.04
72468;SHT30;60626;43.582;1.470;2022-07-24T13:24:00;34.22;33.14
72468;SHT30;60626;43.582;1.470;2022-07-24T13:26:27;34.23;32.80
72468;SHT30;60626;43.582;1.470;2022-07-24T13:28:54;34.23;32.94
72468;SHT30;60626;43.582;1.470;2022-07-24T13:31:20;34.31;32.69
72468;SHT30;60626;43.582;1.470;2022-07-24T13:33:48;34.35;32.65
72468;SHT30;60626;43.582;1.470;2022-07-24T13:36:16;34.36;32.71
72468;SHT30;60626;43.582;1.470;2022-07-24T13:38:44;34.40;33.11
72468;SHT30;60626;43.582;1.470;2022-07-24T13:41:13;34.47;32.69
72468;SHT30;60626;43.582;1.470;2022-07-24T13:43:40;34.54;33.38
72468;SHT30;60626;43.582;1.470;2022-07-24T13:46:07;34.60;32.64
72468;SHT30;60626;43.582;1.470;2022-07-24T13:48:33;34.61;33.27
72468;SHT30;60626;43.582;1.470;2022-07-24T13:51:00;34.63;31.96
72468;SHT30;60626;43.582;1.470;2022-07-24T13:53:27;34.66;32.51
72468;SHT30;60626;43.582;1.470;2022-07-24T13:55:54;34.64;33.05
72468;SHT30;60626;43.582;1.470;2022-07-24T13:58:20;34.68;32.49
72468;SHT30;60626;43.582;1.470;2022-07-24T14:00:47;34.77;32.65
72468;SHT30;60626;43.582;1.470;2022-07-24T14:03:20;34.80;32.26
72468;SHT30;60626;43.582;1.470;2022-07-24T14:06:05;34.83;31.38
72468;SHT30;60626;43.582;1.470;2022-07-24T14:08:38;34.78;31.55
72468;SHT30;60626;43.582;1.470;2022-07-24T14:11:07;34.81;31.79
72468;SHT30;60626;43.582;1.470;2022-07-24T14:13:34;34.83;31.73
72468;SHT30;60626;43.582;1.470;2022-07-24T14:16:00;34.86;32.17
72468;SHT30;60626;43.582;1.470;2022-07-24T14:18:27;34.87;31.60
72468;SHT30;60626;43.582;1.470;2022-07-24T14:20:54;34.88;31.64
72468;SHT30;60626;43.582;1.470;2022-07-24T14:23:21;34.92;32.13
72468;SHT30;60626;43.582;1.470;2022-07-24T14:25:50;34.99;32.24
72468;SHT30;60626;43.582;1.470;2022-07-24T14:28:17;35.08;31.16
72468;SHT30;60626;43.582;1.470;2022-07-24T14:30:44;35.09;30.77
72468;SHT30;60626;43.582;1.470;2022-07-24T14:33:11;35.08;30.80
72468;SHT30;60626;43.582;1.470;2022-07-24T14:35:38;35.11;30.93
72468;SHT30;60626;43.582;1.470;2022-07-24T14:38:04;35.08;30.88
72468;SHT30;60626;43.582;1.470;2022-07-24T14:40:31;35.07;31.07
72468;SHT30;60626;43.582;1.470;2022-07-24T14:42:58;35.07;30.79
72468;SHT30;60626;43.582;1.470;2022-07-24T14:45:25;35.09;31.10
72468;SHT30;60626;43.582;1.470;2022-07-24T14:47:51;35.11;30.96
72468;SHT30;60626;43.582;1.470;2022-07-24T14:50:20;35.12;31.36
72468;SHT30;60626;43.582;1.470;2022-07-24T14:52:52;35.12;30.98
72468;SHT30;60626;43.582;1.470;2022-07-24T14:55:19;35.12;30.87
72468;SHT30;60626;43.582;1.470;2022-07-24T14:57:45;35.15;31.61
72468;SHT30;60626;43.582;1.470;2022-07-24T15:00:12;35.18;31.83
72468;SHT30;60626;43.582;1.470;2022-07-24T15:02:39;35.24;31.14
72468;SHT30;60626;43.582;1.470;2022-07-24T15:05:07;35.25;31.21
72468;SHT30;60626;43.582;1.470;2022-07-24T15:07:34;35.26;31.40
72468;SHT30;60626;43.582;1.470;2022-07-24T15:10:00;35.31;30.96
72468;SHT30;60626;43.582;1.470;2022-07-24T15:12:28;35.35;31.07
72468;SHT30;60626;43.582;1.470;2022-07-24T15:14:55;35.41;31.03
72468;SHT30;60626;43.582;1.470;2022-07-24T15:17:22;35.46;30.74
72468;SHT30;60626;43.582;1.470;2022-07-24T15:19:48;35.49;30.77
72468;SHT30;60626;43.582;1.470;2022-07-24T15:22:15;35.53;30.87
72468;SHT30;60626;43.582;1.470;2022-07-24T15:24:42;35.53;30.88
72468;SHT30;60626;43.582;1.470;2022-07-24T15:27:08;35.47;30.83
72468;SHT30;60626;43.582;1.470;2022-07-24T15:29:35;35.46;30.90
72468;SHT30;60626;43.582;1.470;2022-07-24T15:32:02;35.49;31.48
72468;SHT30;60626;43.582;1.470;2022-07-24T15:34:29;35.49;31.12
72468;SHT30;60626;43.582;1.470;2022-07-24T15:36:57;35.53;30.52
72468;SHT30;60626;43.582;1.470;2022-07-24T15:39:23;35.52;30.47
72468;SHT30;60626;43.582;1.470;2022-07-24T15:41:50;35.52;30.51
72468;SHT30;60626;43.582;1.470;2022-07-24T15:44:19;35.49;30.53
72468;SHT30;60626;43.582;1.470;2022-07-24T15:46:47;35.50;31.24
72468;SHT30;60626;43.582;1.470;2022-07-24T15:49:16;35.54;31.18
72468;SHT30;60626;43.582;1.470;2022-07-24T15:51:43;35.56;30.92
72468;SHT30;60626;43.582;1.470;2022-07-24T15:54:10;35.59;30.49
72468;SHT30;60626;43.582;1.470;2022-07-24T15:56:37;35.62;31.41
72468;SHT30;60626;43.582;1.470;2022-07-24T15:59:05;35.62;31.11
72468;SHT30;60626;43.582;1.470;2022-07-24T16:01:32;35.64;30.96
72468;SHT30;60626;43.582;1.470;2022-07-24T16:04:16;35.69;30.86
72468;SHT30;60626;43.582;1.470;2022-07-24T16:06:44;35.69;30.50
72468;SHT30;60626;43.582;1.470;2022-07-24T16:09:12;35.69;30.72
72468;SHT30;60626;43.582;1.470;2022-07-24T16:11:39;35.69;30.93
72468;SHT30;60626;43.582;1.470;2022-07-24T16:14:06;35.67;31.05
72468;SHT30;60626;43.582;1.470;2022-07-24T16:16:34;35.70;30.42
72468;SHT30;60626;43.582;1.470;2022-07-24T16:19:01;35.70;30.43
72468;SHT30;60626;43.582;1.470;2022-07-24T16:21:29;35.72;30.41